createdAt,value
2019-06-07T00:00:38.034Z,1002.29
2019-06-07T00:01:28.164Z,1002.30
2019-06-07T00:02:28.160Z,1002.25
2019-06-07T00:03:30.353Z,1002.34
2019-06-07T00:04:28.139Z,1002.35
2019-06-07T00:05:28.153Z,1002.38
2019-06-07T00:06:28.106Z,1002.40
2019-06-07T00:07:28.100Z,1002.44
2019-06-07T00:08:29.361Z,1002.45
2019-06-07T00:09:28.076Z,1002.55
2019-06-07T00:10:36.771Z,1002.55
2019-06-07T00:11:29.056Z,1002.60
2019-06-07T00:12:28.042Z,1002.63
2019-06-07T00:13:28.042Z,1002.57
2019-06-07T00:14:28.038Z,1002.64
2019-06-07T00:15:29.232Z,1002.63
2019-06-07T00:16:28.024Z,1002.63
2019-06-07T00:17:28.007Z,1002.70
2019-06-07T00:18:27.986Z,1002.69
2019-06-07T00:19:27.978Z,1002.81
2019-06-07T00:20:27.966Z,1002.78
2019-06-07T00:22:12.867Z,1002.80
2019-06-07T00:22:32.810Z,1002.79
2019-06-07T00:23:27.954Z,1002.83
2019-06-07T00:24:27.940Z,1002.75
2019-06-07T00:25:27.909Z,1002.78
2019-06-07T00:26:27.949Z,1002.81
2019-06-07T00:27:27.891Z,1002.81
2019-06-07T00:28:27.887Z,1002.86
2019-06-07T00:29:27.864Z,1002.87
2019-06-07T00:30:42.243Z,1002.89
2019-06-07T00:31:28.900Z,1002.85
2019-06-07T00:32:27.836Z,1002.90
2019-06-07T00:33:27.830Z,1002.88
2019-06-07T00:34:27.822Z,1002.89
2019-06-07T00:35:27.803Z,1002.90
2019-06-07T00:36:27.789Z,1002.87
2019-06-07T00:37:27.804Z,1002.80
2019-06-07T00:38:27.781Z,1002.84
2019-06-07T00:39:27.769Z,1002.80
2019-06-07T00:40:32.124Z,1002.86
2019-06-07T00:41:27.741Z,1002.87
2019-06-07T00:42:27.778Z,1002.88
2019-06-07T00:43:28.519Z,1002.84
2019-06-07T00:44:27.712Z,1002.92
2019-06-07T00:45:27.700Z,1002.93
2019-06-07T00:46:27.682Z,1002.95
2019-06-07T00:47:27.731Z,1002.92
2019-06-07T00:48:32.607Z,1002.95
2019-06-07T00:49:40.664Z,1002.93
2019-06-07T00:50:28.651Z,1002.95
2019-06-07T00:51:27.647Z,1002.88
2019-06-07T00:53:13.998Z,1002.93
2019-06-07T00:53:32.231Z,1002.93
2019-06-07T00:54:27.599Z,1002.91
2019-06-07T00:55:27.854Z,1002.89
2019-06-07T00:56:27.576Z,1002.91
2019-06-07T00:57:27.626Z,1002.92
2019-06-07T00:58:29.482Z,1002.94
2019-06-07T00:59:29.622Z,1002.97
2019-06-07T01:00:27.547Z,1002.97
2019-06-07T01:01:27.524Z,1002.98
2019-06-07T01:02:31.203Z,1003.00
2019-06-07T01:03:27.493Z,1002.95
2019-06-07T01:04:27.535Z,1002.99
2019-06-07T01:05:31.288Z,1002.93
2019-06-07T01:06:27.459Z,1002.98
2019-06-07T01:07:27.454Z,1002.96
2019-06-07T01:08:29.901Z,1002.92
2019-06-07T01:09:27.470Z,1002.97
2019-06-07T01:10:51.751Z,1002.94
2019-06-07T01:11:27.441Z,1002.92
2019-06-07T01:12:27.428Z,1002.94
2019-06-07T01:13:27.392Z,1002.91
2019-06-07T01:14:28.773Z,1002.94
2019-06-07T01:15:29.293Z,1002.95
2019-06-07T01:16:27.361Z,1003.02
2019-06-07T01:17:41.572Z,1002.99
2019-06-07T01:18:41.019Z,1002.99
2019-06-07T01:19:28.353Z,1003.02
2019-06-07T01:20:27.336Z,1003.07
2019-06-07T01:21:29.504Z,1003.02
2019-06-07T01:22:29.206Z,1003.03
2019-06-07T01:24:28.034Z,1003.06
2019-06-07T01:25:29.053Z,1003.08
2019-06-07T01:26:30.201Z,1003.06
2019-06-07T01:27:28.731Z,1003.16
2019-06-07T01:28:29.599Z,1003.13
2019-06-07T01:29:29.429Z,1003.17
2019-06-07T01:30:29.072Z,1003.15
2019-06-07T01:31:30.972Z,1003.16
2019-06-07T01:32:31.259Z,1003.22
2019-06-07T01:33:49.301Z,1003.21
2019-06-07T01:34:28.681Z,1003.20
2019-06-07T01:35:29.589Z,1003.21
2019-06-07T01:36:29.466Z,1003.21
2019-06-07T01:37:29.663Z,1003.21
2019-06-07T01:38:27.696Z,1003.23
2019-06-07T01:39:29.858Z,1003.20
2019-06-07T01:40:31.929Z,1003.15
2019-06-07T01:41:28.441Z,1003.21
2019-06-07T01:42:29.480Z,1003.18
2019-06-07T01:43:30.541Z,1003.20
2019-06-07T01:44:27.979Z,1003.16
2019-06-07T01:45:30.821Z,1003.10
2019-06-07T01:46:28.643Z,1003.12
2019-06-07T01:47:29.346Z,1003.12
2019-06-07T01:48:45.334Z,1003.13
2019-06-07T01:49:29.439Z,1003.11
2019-06-07T01:50:27.287Z,1003.05
2019-06-07T01:51:27.937Z,1003.00
2019-06-07T01:52:26.955Z,1002.97
2019-06-07T01:53:29.152Z,1002.92
2019-06-07T01:54:54.336Z,1002.99
2019-06-07T01:55:31.706Z,1002.96
2019-06-07T01:56:29.590Z,1002.92
2019-06-07T01:57:43.202Z,1002.92
2019-06-07T01:58:29.248Z,1002.87
2019-06-07T01:59:28.478Z,1002.95
2019-06-07T02:00:31.504Z,1002.95
2019-06-07T02:01:34.678Z,1002.89
2019-06-07T02:02:29.985Z,1002.95
2019-06-07T02:03:32.268Z,1002.95
2019-06-07T02:04:31.917Z,1002.99
2019-06-07T02:05:30.951Z,1002.95
2019-06-07T02:06:29.707Z,1002.97
2019-06-07T02:07:32.589Z,1002.93
2019-06-07T02:08:33.560Z,1002.92
2019-06-07T02:09:29.838Z,1002.92
2019-06-07T02:10:30.393Z,1002.93
2019-06-07T02:11:28.733Z,1002.91
2019-06-07T02:12:37.572Z,1002.94
2019-06-07T02:13:28.872Z,1003.03
2019-06-07T02:14:29.902Z,1003.03
2019-06-07T02:15:30.709Z,1002.99
2019-06-07T02:16:30.510Z,1003.04
2019-06-07T02:17:28.450Z,1003.02
2019-06-07T02:18:29.120Z,1003.04
2019-06-07T02:19:27.559Z,1003.05
2019-06-07T02:20:31.881Z,1002.99
2019-06-07T02:21:30.431Z,1002.96
2019-06-07T02:22:29.452Z,1002.99
2019-06-07T02:23:28.303Z,1002.95
2019-06-07T02:24:28.855Z,1002.95
2019-06-07T02:25:48.458Z,1002.94
2019-06-07T02:26:29.975Z,1003.01
2019-06-07T02:27:27.511Z,1002.97
2019-06-07T02:28:36.517Z,1002.99
2019-06-07T02:29:30.250Z,1002.92
2019-06-07T02:30:58.060Z,1002.97
2019-06-07T02:31:32.281Z,1002.95
2019-06-07T02:32:29.726Z,1002.96
2019-06-07T02:33:31.170Z,1002.95
2019-06-07T02:34:28.098Z,1002.96
2019-06-07T02:35:38.307Z,1002.94
2019-06-07T02:36:35.105Z,1002.98
2019-06-07T02:37:27.683Z,1002.93
2019-06-07T02:38:29.745Z,1002.95
2019-06-07T02:39:28.791Z,1002.92
2019-06-07T02:40:29.933Z,1002.91
2019-06-07T02:41:32.598Z,1002.90
2019-06-07T02:42:32.549Z,1002.88
2019-06-07T02:43:28.236Z,1002.87
2019-06-07T02:44:31.817Z,1002.84
2019-06-07T02:45:29.982Z,1002.85
2019-06-07T02:46:38.558Z,1002.86
2019-06-07T02:47:28.689Z,1002.87
2019-06-07T02:48:27.912Z,1002.90
2019-06-07T02:49:28.998Z,1002.83
2019-06-07T02:50:28.427Z,1002.92
2019-06-07T02:51:28.086Z,1002.88
2019-06-07T02:52:29.321Z,1002.88
2019-06-07T02:53:29.959Z,1002.88
2019-06-07T02:54:27.402Z,1002.83
2019-06-07T02:55:29.669Z,1002.84
2019-06-07T02:56:39.183Z,1002.86
2019-06-07T02:57:29.384Z,1002.80
2019-06-07T02:58:32.489Z,1002.77
2019-06-07T02:59:52.706Z,1002.76
2019-06-07T03:00:49.653Z,1002.78
2019-06-07T03:01:28.525Z,1002.80
2019-06-07T03:02:30.931Z,1002.76
2019-06-07T03:03:28.917Z,1002.79
2019-06-07T03:04:28.847Z,1002.77
2019-06-07T03:05:27.371Z,1002.81
2019-06-07T03:06:29.707Z,1002.82
2019-06-07T03:07:28.270Z,1002.79
2019-06-07T03:08:26.121Z,1002.75
2019-06-07T03:09:26.392Z,1002.77
2019-06-07T03:10:28.557Z,1002.73
2019-06-07T03:11:26.081Z,1002.71
2019-06-07T03:12:26.574Z,1002.76
2019-06-07T03:13:28.908Z,1002.72
2019-06-07T03:14:26.107Z,1002.74
2019-06-07T03:15:37.424Z,1002.73
2019-06-07T03:16:26.260Z,1002.74
2019-06-07T03:17:27.042Z,1002.78
2019-06-07T03:18:28.719Z,1002.75
2019-06-07T03:19:26.403Z,1002.76
2019-06-07T03:20:27.517Z,1002.78
2019-06-07T03:21:28.188Z,1002.80
2019-06-07T03:22:26.750Z,1002.79
2019-06-07T03:23:26.373Z,1002.80
2019-06-07T03:24:29.583Z,1002.80
2019-06-07T03:25:25.977Z,1002.84
2019-06-07T03:26:27.633Z,1002.81
2019-06-07T03:27:42.556Z,1002.86
2019-06-07T03:28:27.633Z,1002.81
2019-06-07T03:29:28.539Z,1002.82
2019-06-07T03:30:58.109Z,1002.86
2019-06-07T03:31:28.524Z,1002.92
2019-06-07T03:32:29.197Z,1002.88
2019-06-07T03:33:26.861Z,1002.94
2019-06-07T03:34:25.841Z,1002.94
2019-06-07T03:35:28.466Z,1002.95
2019-06-07T03:36:26.159Z,1002.94
2019-06-07T03:37:28.056Z,1002.89
2019-06-07T03:38:27.617Z,1003.01
2019-06-07T03:39:28.422Z,1002.94
2019-06-07T03:40:26.690Z,1002.98
2019-06-07T03:41:28.321Z,1003.03
2019-06-07T03:42:26.658Z,1002.99
2019-06-07T03:43:27.303Z,1003.03
2019-06-07T03:44:27.872Z,1003.06
2019-06-07T03:45:28.514Z,1003.02
2019-06-07T03:46:27.252Z,1003.03
2019-06-07T03:47:28.389Z,1003.06
2019-06-07T03:48:28.337Z,1003.08
2019-06-07T03:49:25.683Z,1003.05
2019-06-07T03:50:25.669Z,1003.08
2019-06-07T03:51:28.202Z,1003.05
2019-06-07T03:52:25.656Z,1003.08
2019-06-07T03:53:25.624Z,1003.06
2019-06-07T03:54:25.629Z,1003.08
2019-06-07T03:55:25.600Z,1003.07
2019-06-07T03:56:25.598Z,1003.09
2019-06-07T03:57:25.639Z,1003.07
2019-06-07T03:58:41.147Z,1003.15
2019-06-07T03:59:28.376Z,1003.11
2019-06-07T04:00:25.560Z,1003.14
2019-06-07T04:01:25.542Z,1003.20
2019-06-07T04:02:25.523Z,1003.21
2019-06-07T04:03:39.550Z,1003.21
2019-06-07T04:04:25.529Z,1003.18
2019-06-07T04:05:25.501Z,1003.22
2019-06-07T04:06:25.492Z,1003.17
2019-06-07T04:07:25.474Z,1003.26
2019-06-07T04:08:25.528Z,1003.24
2019-06-07T04:09:25.454Z,1003.19
2019-06-07T04:10:44.745Z,1003.18
2019-06-07T04:11:25.439Z,1003.22
2019-06-07T04:12:25.414Z,1003.20
2019-06-07T04:13:25.402Z,1003.20
2019-06-07T04:14:25.413Z,1003.19
2019-06-07T04:15:25.389Z,1003.16
2019-06-07T04:16:25.371Z,1003.15
2019-06-07T04:17:25.373Z,1003.21
2019-06-07T04:18:25.349Z,1003.18
2019-06-07T04:19:25.358Z,1003.20
2019-06-07T04:20:25.331Z,1003.21
2019-06-07T04:21:25.330Z,1003.21
2019-06-07T04:22:25.312Z,1003.22
2019-06-07T04:23:28.166Z,1003.15
2019-06-07T04:24:25.348Z,1003.15
2019-06-07T04:25:25.273Z,1003.19
2019-06-07T04:26:25.270Z,1003.17
2019-06-07T04:27:25.260Z,1003.16
2019-06-07T04:29:15.629Z,1003.08
2019-06-07T04:29:54.602Z,1003.14
2019-06-07T04:30:26.219Z,1003.14
2019-06-07T04:31:25.213Z,1003.18
2019-06-07T04:32:25.206Z,1003.21
2019-06-07T04:33:25.188Z,1003.23
2019-06-07T04:34:25.189Z,1003.25
2019-06-07T04:35:25.192Z,1003.23
2019-06-07T04:36:43.069Z,1003.20
2019-06-07T04:37:25.144Z,1003.19
2019-06-07T04:38:25.138Z,1003.19
2019-06-07T04:39:25.119Z,1003.18
2019-06-07T04:40:25.160Z,1003.14
2019-06-07T04:41:25.100Z,1003.18
2019-06-07T04:42:25.090Z,1003.21
2019-06-07T04:43:25.262Z,1003.19
2019-06-07T04:44:25.076Z,1003.22
2019-06-07T04:45:37.365Z,1003.25
2019-06-07T04:46:26.088Z,1003.26
2019-06-07T04:47:25.038Z,1003.26
2019-06-07T04:48:25.108Z,1003.27
2019-06-07T04:49:25.034Z,1003.26
2019-06-07T04:50:25.000Z,1003.32
2019-06-07T04:51:25.040Z,1003.25
2019-06-07T04:52:24.993Z,1003.31
2019-06-07T04:53:25.016Z,1003.36
2019-06-07T04:54:24.957Z,1003.31
2019-06-07T04:55:24.948Z,1003.29
2019-06-07T04:56:24.935Z,1003.29
2019-06-07T04:57:24.939Z,1003.30
2019-06-07T04:58:24.911Z,1003.32
2019-06-07T05:00:04.242Z,1003.30
2019-06-07T05:00:48.463Z,1003.23
2019-06-07T05:01:27.679Z,1003.31
2019-06-07T05:02:24.895Z,1003.21
2019-06-07T05:03:24.865Z,1003.27
2019-06-07T05:04:24.851Z,1003.23
2019-06-07T05:05:24.846Z,1003.27
2019-06-07T05:06:24.824Z,1003.18
2019-06-07T05:07:24.865Z,1003.15
2019-06-07T05:08:28.523Z,1003.07
2019-06-07T05:09:25.793Z,1003.15
2019-06-07T05:10:24.786Z,1003.05
2019-06-07T05:11:24.770Z,1003.11
2019-06-07T05:12:24.767Z,1003.13
2019-06-07T05:13:24.777Z,1003.09
2019-06-07T05:14:24.745Z,1003.12
2019-06-07T05:15:24.749Z,1003.07
2019-06-07T05:16:24.742Z,1003.15
2019-06-07T05:17:24.707Z,1003.10
2019-06-07T05:18:24.805Z,1003.15
2019-06-07T05:19:24.681Z,1003.13
2019-06-07T05:20:24.682Z,1003.15
2019-06-07T05:21:24.681Z,1003.15
2019-06-07T05:22:24.659Z,1003.10
2019-06-07T05:24:24.678Z,1003.14
2019-06-07T05:25:24.618Z,1003.15
2019-06-07T05:26:24.664Z,1003.13
2019-06-07T05:27:24.594Z,1003.12
2019-06-07T05:28:24.588Z,1003.11
2019-06-07T05:29:24.598Z,1003.10
2019-06-07T05:30:58.565Z,1003.25
2019-06-07T05:31:24.558Z,1003.13
2019-06-07T05:32:24.622Z,1003.12
2019-06-07T05:33:24.546Z,1003.12
2019-06-07T05:34:24.571Z,1003.16
2019-06-07T05:35:24.515Z,1003.13
2019-06-07T05:36:24.525Z,1003.19
2019-06-07T05:37:24.494Z,1003.18
2019-06-07T05:38:24.502Z,1003.11
2019-06-07T05:39:24.469Z,1003.11
2019-06-07T05:40:24.474Z,1003.11
2019-06-07T05:41:24.450Z,1003.14
2019-06-07T05:42:24.465Z,1003.13
2019-06-07T05:43:24.429Z,1003.14
2019-06-07T05:44:24.437Z,1003.12
2019-06-07T05:45:24.440Z,1003.13
2019-06-07T05:46:24.388Z,1003.12
2019-06-07T05:47:25.506Z,1003.16
2019-06-07T05:48:24.371Z,1003.14
2019-06-07T05:49:24.371Z,1003.15
2019-06-07T05:50:39.215Z,1003.13
2019-06-07T05:51:24.351Z,1003.15
2019-06-07T05:52:24.320Z,1003.12
2019-06-07T05:53:24.321Z,1003.11
2019-06-07T05:54:24.301Z,1003.09
2019-06-07T05:55:24.317Z,1003.12
2019-06-07T05:56:24.347Z,1003.11
2019-06-07T05:57:24.272Z,1003.05
2019-06-07T05:58:24.256Z,1003.05
2019-06-07T05:59:24.266Z,1003.05
2019-06-07T06:00:25.290Z,1003.06
2019-06-07T06:01:42.816Z,1003.07
2019-06-07T06:02:25.278Z,1003.12
2019-06-07T06:03:24.201Z,1003.08
2019-06-07T06:04:24.190Z,1003.10
2019-06-07T06:05:34.544Z,1003.12
2019-06-07T06:06:24.212Z,1003.06
2019-06-07T06:07:24.200Z,1003.05
2019-06-07T06:08:24.194Z,1003.06
2019-06-07T06:09:24.135Z,1003.07
2019-06-07T06:10:24.127Z,1003.02
2019-06-07T06:11:43.218Z,1003.02
2019-06-07T06:12:34.858Z,1003.05
2019-06-07T06:13:24.173Z,1003.01
2019-06-07T06:14:24.081Z,1003.02
2019-06-07T06:15:41.480Z,1003.03
2019-06-07T06:16:24.071Z,1003.02
2019-06-07T06:17:24.052Z,1003.00
2019-06-07T06:18:24.078Z,1002.95
2019-06-07T06:19:24.068Z,1002.97
2019-06-07T06:20:24.071Z,1002.97
2019-06-07T06:21:24.005Z,1002.92
2019-06-07T06:22:24.015Z,1002.96
2019-06-07T06:23:24.020Z,1002.91
2019-06-07T06:24:23.983Z,1002.98
2019-06-07T06:25:33.553Z,1003.00
2019-06-07T06:26:24.952Z,1002.99
2019-06-07T06:28:02.763Z,1003.00
2019-06-07T06:28:23.959Z,1003.00
2019-06-07T06:29:23.923Z,1003.01
2019-06-07T06:30:23.924Z,1002.94
2019-06-07T06:31:23.895Z,1002.95
2019-06-07T06:32:41.828Z,1002.98
2019-06-07T06:33:33.553Z,1002.96
2019-06-07T06:34:23.866Z,1003.05
2019-06-07T06:35:23.864Z,1003.02
2019-06-07T06:36:23.875Z,1003.00
2019-06-07T06:37:23.847Z,1003.05
2019-06-07T06:38:23.823Z,1003.13
2019-06-07T06:39:23.843Z,1003.08
2019-06-07T06:40:23.796Z,1003.08
2019-06-07T06:41:23.798Z,1003.03
2019-06-07T06:42:23.774Z,1003.11
2019-06-07T06:43:23.766Z,1003.10
2019-06-07T06:44:23.814Z,1003.09
2019-06-07T06:45:23.751Z,1003.10
2019-06-07T06:46:38.137Z,1003.09
2019-06-07T06:47:23.739Z,1003.13
2019-06-07T06:48:23.765Z,1003.13
2019-06-07T06:49:23.749Z,1003.02
2019-06-07T06:50:23.709Z,1003.03
2019-06-07T06:51:23.694Z,1003.01
2019-06-07T06:52:23.671Z,1002.98
2019-06-07T06:53:23.667Z,1002.94
2019-06-07T06:54:39.943Z,1002.95
2019-06-07T06:55:23.690Z,1002.94
2019-06-07T06:56:23.622Z,1002.95
2019-06-07T06:57:23.613Z,1002.96
2019-06-07T06:58:23.609Z,1002.96
2019-06-07T06:59:41.175Z,1003.01
2019-06-07T07:00:43.115Z,1003.03
2019-06-07T07:01:23.590Z,1002.99
2019-06-07T07:02:23.558Z,1003.04
2019-06-07T07:04:23.551Z,1003.04
2019-06-07T07:05:23.537Z,1003.04
2019-06-07T07:06:26.367Z,1003.08
2019-06-07T07:07:23.502Z,1003.10
2019-06-07T07:08:23.504Z,1003.10
2019-06-07T07:09:23.485Z,1003.09
2019-06-07T07:10:23.485Z,1003.10
2019-06-07T07:11:23.595Z,1003.05
2019-06-07T07:12:23.451Z,1003.04
2019-06-07T07:13:23.443Z,1003.07
2019-06-07T07:14:23.434Z,1003.02
2019-06-07T07:15:23.417Z,1003.05
2019-06-07T07:16:23.555Z,1003.08
2019-06-07T07:17:46.814Z,1003.04
2019-06-07T07:18:24.384Z,1003.05
2019-06-07T07:19:23.373Z,1003.02
2019-06-07T07:20:23.380Z,1003.05
2019-06-07T07:21:23.362Z,1003.04
2019-06-07T07:22:23.398Z,1003.06
2019-06-07T07:23:23.327Z,1002.99
2019-06-07T07:24:23.320Z,1003.03
2019-06-07T07:25:23.310Z,1003.00
2019-06-07T07:26:23.541Z,1003.00
2019-06-07T07:27:23.302Z,1003.03
2019-06-07T07:28:23.305Z,1003.05
2019-06-07T07:29:23.290Z,1003.04
2019-06-07T07:30:36.559Z,1003.03
2019-06-07T07:31:24.250Z,1003.03
2019-06-07T07:32:23.234Z,1002.99
2019-06-07T07:33:23.231Z,1003.01
2019-06-07T07:34:34.949Z,1003.02
2019-06-07T07:35:24.282Z,1002.98
2019-06-07T07:36:38.787Z,1002.99
2019-06-07T07:37:23.187Z,1003.04
2019-06-07T07:38:23.197Z,1003.02
2019-06-07T07:39:23.168Z,1002.99
2019-06-07T07:41:23.151Z,1002.95
2019-06-07T07:42:23.143Z,1002.94
2019-06-07T07:43:23.144Z,1002.99
2019-06-07T07:44:23.115Z,1002.91
2019-06-07T07:45:23.111Z,1002.89
2019-06-07T07:46:29.818Z,1002.90
2019-06-07T07:47:24.074Z,1002.88
2019-06-07T07:48:23.066Z,1002.87
2019-06-07T07:49:23.149Z,1002.89
2019-06-07T07:50:23.055Z,1002.87
2019-06-07T07:51:23.034Z,1002.87
2019-06-07T07:52:23.054Z,1002.89
2019-06-07T07:53:23.054Z,1002.82
2019-06-07T07:54:22.991Z,1002.84
2019-06-07T07:55:22.993Z,1002.79
2019-06-07T07:56:22.983Z,1002.78
2019-06-07T07:57:23.016Z,1002.78
2019-06-07T07:58:22.949Z,1002.72
2019-06-07T07:59:41.039Z,1002.77
2019-06-07T08:00:50.253Z,1002.77
2019-06-07T08:01:23.935Z,1002.80
2019-06-07T08:02:22.918Z,1002.81
2019-06-07T08:03:22.925Z,1002.81
2019-06-07T08:04:39.750Z,1002.79
2019-06-07T08:05:33.778Z,1002.86
2019-06-07T08:06:22.870Z,1002.86
2019-06-07T08:07:22.855Z,1002.83
2019-06-07T08:08:22.893Z,1002.84
2019-06-07T08:09:22.827Z,1002.84
2019-06-07T08:10:22.817Z,1002.81
2019-06-07T08:11:22.812Z,1002.80
2019-06-07T08:12:22.816Z,1002.76
2019-06-07T08:13:26.421Z,1002.77
2019-06-07T08:14:22.802Z,1002.82
2019-06-07T08:15:22.763Z,1002.74
2019-06-07T08:16:22.756Z,1002.77
2019-06-07T08:17:22.742Z,1002.73
2019-06-07T08:18:22.739Z,1002.77
2019-06-07T08:19:22.765Z,1002.74
2019-06-07T08:20:22.733Z,1002.75
2019-06-07T08:21:26.707Z,1002.74
2019-06-07T08:22:22.688Z,1002.77
2019-06-07T08:23:22.683Z,1002.72
2019-06-07T08:24:22.668Z,1002.75
2019-06-07T08:25:22.679Z,1002.72
2019-06-07T08:26:22.660Z,1002.60
2019-06-07T08:27:26.495Z,1002.66
2019-06-07T08:28:22.620Z,1002.59
2019-06-07T08:29:22.618Z,1002.57
2019-06-07T08:31:22.609Z,1002.48
2019-06-07T08:32:22.578Z,1002.48
2019-06-07T08:33:26.844Z,1002.47
2019-06-07T08:34:22.576Z,1002.54
2019-06-07T08:36:03.229Z,1002.49
2019-06-07T08:36:40.715Z,1002.46
2019-06-07T08:37:22.543Z,1002.51
2019-06-07T08:38:29.314Z,1002.56
2019-06-07T08:39:22.502Z,1002.59
2019-06-07T08:40:22.504Z,1002.54
2019-06-07T08:41:22.525Z,1002.55
2019-06-07T08:42:36.532Z,1002.58
2019-06-07T08:43:22.480Z,1002.58
2019-06-07T08:44:25.304Z,1002.53
2019-06-07T08:45:22.435Z,1002.55
2019-06-07T08:46:22.464Z,1002.54
2019-06-07T08:47:22.428Z,1002.54
2019-06-07T08:48:27.992Z,1002.51
2019-06-07T08:49:22.424Z,1002.52
2019-06-07T08:50:22.380Z,1002.56
2019-06-07T08:51:22.426Z,1002.45
2019-06-07T08:52:22.364Z,1002.44
2019-06-07T08:53:22.349Z,1002.44
2019-06-07T08:54:23.463Z,1002.47
2019-06-07T08:55:22.386Z,1002.41
2019-06-07T08:56:22.318Z,1002.46
2019-06-07T08:57:22.349Z,1002.47
2019-06-07T08:58:22.331Z,1002.42
2019-06-07T08:59:22.289Z,1002.39
2019-06-07T09:00:45.682Z,1002.39
2019-06-07T09:01:23.262Z,1002.42
2019-06-07T09:02:24.098Z,1002.41
2019-06-07T09:03:22.241Z,1002.39
2019-06-07T09:04:22.314Z,1002.38
2019-06-07T09:05:22.221Z,1002.41
2019-06-07T09:07:22.431Z,1002.42
2019-06-07T09:08:29.830Z,1002.40
2019-06-07T09:09:22.177Z,1002.39
2019-06-07T09:10:22.257Z,1002.40
2019-06-07T09:11:22.163Z,1002.39
2019-06-07T09:12:22.176Z,1002.33
2019-06-07T09:13:22.164Z,1002.28
2019-06-07T09:14:22.119Z,1002.19
2019-06-07T09:15:24.198Z,1002.25
2019-06-07T09:16:22.100Z,1002.22
2019-06-07T09:17:22.150Z,1002.18
2019-06-07T09:18:41.040Z,1002.27
2019-06-07T09:19:23.068Z,1002.23
2019-06-07T09:20:36.526Z,1002.22
2019-06-07T09:21:22.055Z,1002.22
2019-06-07T09:22:22.059Z,1002.22
2019-06-07T09:23:22.044Z,1002.18
2019-06-07T09:24:22.040Z,1002.14
2019-06-07T09:25:22.067Z,1002.22
2019-06-07T09:26:21.994Z,1002.21
2019-06-07T09:27:22.000Z,1002.22
2019-06-07T09:28:21.972Z,1002.18
2019-06-07T09:29:22.021Z,1002.17
2019-06-07T09:30:21.948Z,1002.15
2019-06-07T09:31:21.938Z,1002.16
2019-06-07T09:32:21.925Z,1002.18
2019-06-07T09:33:21.935Z,1002.14
2019-06-07T09:34:21.920Z,1002.14
2019-06-07T09:35:21.919Z,1002.14
2019-06-07T09:36:21.884Z,1002.18
2019-06-07T09:38:03.731Z,1002.10
2019-06-07T09:38:26.141Z,1002.10
2019-06-07T09:39:21.873Z,1002.13
2019-06-07T09:40:27.617Z,1002.12
2019-06-07T09:41:42.664Z,1002.18
2019-06-07T09:42:21.828Z,1002.11
2019-06-07T09:44:26.018Z,1002.16
2019-06-07T09:45:21.786Z,1002.09
2019-06-07T09:46:21.796Z,1002.13
2019-06-07T09:47:31.853Z,1002.18
2019-06-07T09:49:08.881Z,1002.06
2019-06-07T09:49:31.934Z,1002.04
2019-06-07T09:50:21.739Z,1002.04
2019-06-07T09:51:21.771Z,1002.05
2019-06-07T09:52:21.731Z,1002.02
2019-06-07T09:53:23.433Z,1002.07
2019-06-07T09:55:24.871Z,1002.02
2019-06-07T09:56:21.709Z,1001.98
2019-06-07T09:57:21.695Z,1001.99
2019-06-07T09:59:21.637Z,1001.90
2019-06-07T10:00:40.073Z,1001.87
2019-06-07T10:01:21.639Z,1001.86
2019-06-07T10:02:21.626Z,1001.89
2019-06-07T10:03:22.794Z,1001.92
2019-06-07T10:04:30.919Z,1001.89
2019-06-07T10:05:21.574Z,1001.87
2019-06-07T10:06:21.562Z,1001.84
2019-06-07T10:07:31.191Z,1001.83
2019-06-07T10:09:42.312Z,1001.80
2019-06-07T10:11:22.506Z,1001.80
2019-06-07T10:12:21.499Z,1001.82
2019-06-07T10:13:21.511Z,1001.77
2019-06-07T10:14:21.479Z,1001.83
2019-06-07T10:15:21.469Z,1001.76
2019-06-07T10:16:21.467Z,1001.75
2019-06-07T10:17:21.439Z,1001.73
2019-06-07T10:18:21.450Z,1001.71
2019-06-07T10:19:21.425Z,1001.69
2019-06-07T10:20:21.415Z,1001.72
2019-06-07T10:21:21.408Z,1001.74
2019-06-07T10:22:21.419Z,1001.71
2019-06-07T10:23:21.433Z,1001.77
2019-06-07T10:24:21.369Z,1001.73
2019-06-07T10:25:21.359Z,1001.81
2019-06-07T10:26:21.340Z,1001.79
2019-06-07T10:27:21.381Z,1001.77
2019-06-07T10:28:21.353Z,1001.84
2019-06-07T10:29:21.335Z,1001.84
2019-06-07T10:30:21.382Z,1001.82
2019-06-07T10:31:21.315Z,1001.69
2019-06-07T10:32:21.288Z,1001.82
2019-06-07T10:33:21.278Z,1001.75
2019-06-07T10:34:21.300Z,1001.78
2019-06-07T10:35:21.249Z,1001.76
2019-06-07T10:36:21.255Z,1001.83
2019-06-07T10:37:21.228Z,1001.77
2019-06-07T10:38:21.221Z,1001.75
2019-06-07T10:39:21.228Z,1001.71
2019-06-07T10:40:21.233Z,1001.76
2019-06-07T10:41:21.189Z,1001.75
2019-06-07T10:42:21.175Z,1001.74
2019-06-07T10:43:21.157Z,1001.68
2019-06-07T10:44:21.157Z,1001.71
2019-06-07T10:45:21.209Z,1001.70
2019-06-07T10:46:21.124Z,1001.74
2019-06-07T10:47:21.113Z,1001.75
2019-06-07T10:48:21.120Z,1001.79
2019-06-07T10:49:21.100Z,1001.74
2019-06-07T10:50:21.096Z,1001.72
2019-06-07T10:51:21.105Z,1001.72
2019-06-07T10:52:21.060Z,1001.70
2019-06-07T10:53:21.048Z,1001.68
2019-06-07T10:54:29.439Z,1001.68
2019-06-07T10:55:21.031Z,1001.71
2019-06-07T10:56:21.070Z,1001.72
2019-06-07T10:57:21.005Z,1001.68
2019-06-07T10:58:21.017Z,1001.65
2019-06-07T10:59:20.988Z,1001.70
2019-06-07T11:00:21.034Z,1001.60
2019-06-07T11:01:20.966Z,1001.60
2019-06-07T11:02:20.975Z,1001.63
2019-06-07T11:03:20.942Z,1001.59
2019-06-07T11:04:20.927Z,1001.49
2019-06-07T11:05:20.925Z,1001.53
2019-06-07T11:06:20.907Z,1001.54
2019-06-07T11:07:20.950Z,1001.52
2019-06-07T11:08:20.900Z,1001.52
2019-06-07T11:09:20.874Z,1001.53
2019-06-07T11:10:20.868Z,1001.54
2019-06-07T11:11:20.854Z,1001.55
2019-06-07T11:12:20.847Z,1001.50
2019-06-07T11:13:20.860Z,1001.51
2019-06-07T11:14:20.847Z,1001.56
2019-06-07T11:15:20.812Z,1001.60
2019-06-07T11:16:20.798Z,1001.58
2019-06-07T11:17:20.803Z,1001.51
2019-06-07T11:18:20.828Z,1001.52
2019-06-07T11:19:20.775Z,1001.57
2019-06-07T11:20:20.756Z,1001.55
2019-06-07T11:21:20.743Z,1001.61
2019-06-07T11:22:20.734Z,1001.58
2019-06-07T11:23:20.747Z,1001.48
2019-06-07T11:24:24.554Z,1001.56
2019-06-07T11:25:20.715Z,1001.50
2019-06-07T11:26:20.691Z,1001.51
2019-06-07T11:27:20.677Z,1001.47
2019-06-07T11:28:20.669Z,1001.47
2019-06-07T11:29:20.697Z,1001.48
2019-06-07T11:30:20.674Z,1001.45
2019-06-07T11:31:20.651Z,1001.44
2019-06-07T11:32:20.632Z,1001.46
2019-06-07T11:33:20.612Z,1001.50
2019-06-07T11:34:20.602Z,1001.46
2019-06-07T11:35:20.623Z,1001.46
2019-06-07T11:36:20.590Z,1001.37
2019-06-07T11:37:20.590Z,1001.38
2019-06-07T11:38:20.558Z,1001.38
2019-06-07T11:39:20.607Z,1001.36
2019-06-07T11:40:35.082Z,1001.34
2019-06-07T11:41:21.538Z,1001.28
2019-06-07T11:42:20.526Z,1001.24
2019-06-07T11:43:20.527Z,1001.29
2019-06-07T11:44:20.491Z,1001.22
2019-06-07T11:45:20.481Z,1001.26
2019-06-07T11:46:20.492Z,1001.16
2019-06-07T11:47:20.462Z,1001.20
2019-06-07T11:48:20.456Z,1001.20
2019-06-07T11:49:22.125Z,1001.14
2019-06-07T11:50:20.431Z,1001.18
2019-06-07T11:51:20.449Z,1001.13
2019-06-07T11:52:20.415Z,1001.17
2019-06-07T11:53:20.404Z,1001.14
2019-06-07T11:54:20.726Z,1001.10
2019-06-07T11:55:20.370Z,1001.06
2019-06-07T11:56:20.362Z,1001.09
2019-06-07T11:57:20.352Z,1001.08
2019-06-07T11:58:21.823Z,1001.06
2019-06-07T11:59:20.373Z,1001.10
2019-06-07T12:00:20.332Z,1001.05
2019-06-07T12:01:20.309Z,1001.09
2019-06-07T12:02:20.306Z,1001.07
2019-06-07T12:03:20.294Z,1001.10
2019-06-07T12:04:33.867Z,1001.02
2019-06-07T12:05:20.586Z,1001.08
2019-06-07T12:06:20.251Z,1000.98
2019-06-07T12:07:20.254Z,1001.00
2019-06-07T12:08:20.232Z,1001.00
2019-06-07T12:09:20.243Z,1001.01
2019-06-07T12:10:22.800Z,1000.96
2019-06-07T12:11:20.209Z,1000.95
2019-06-07T12:12:20.655Z,1000.96
2019-06-07T12:13:20.174Z,1000.94
2019-06-07T12:14:20.166Z,1000.93
2019-06-07T12:15:20.203Z,1000.94
2019-06-07T12:16:20.149Z,1000.86